Terminal Aerodrome Forecast
Issued by NWS

Home | Current Version | Previous Version | Text Only | Print | Product List | Glossary On
Versions: 1 2 3 4 5 6 7 8 9 10 11 12 13 14 15 16 17 18 19 20 21
000
FTUS43 KDTX 302300
TAFDET
TAF
KDET 302338Z 3100/3124 27005KT P6SM FEW050 BKN100
     FM311000 24005KT P6SM BKN100
     FM311800 25009KT P6SM SCT050 SCT150
     FM312300 23005KT P6SM SKC=

USA.gov is the U.S. government's official web portal to all federal, state and local government web resources and services.